createdAt,value
2023-02-08T00:03:29.019Z,101494.38
2023-02-08T00:13:30.507Z,101489.53
2023-02-08T00:23:31.890Z,101489.19
2023-02-08T00:33:33.290Z,101478.63
2023-02-08T00:43:34.739Z,101476.63
2023-02-08T00:53:40.771Z,101474.41
2023-02-08T01:03:42.642Z,101468.38
2023-02-08T01:13:44.550Z,101470.38
2023-02-08T01:23:46.159Z,101466.81
2023-02-08T01:33:48.000Z,101467.59
2023-02-08T01:44:01.230Z,101455.13
2023-02-08T01:54:03.450Z,101445.31
2023-02-08T02:04:05.179Z,101438.31
2023-02-08T02:14:06.731Z,101431.59
2023-02-08T02:24:30.503Z,101428.50
2023-02-08T02:34:34.195Z,101428.19
2023-02-08T02:44:56.728Z,101428.97
2023-02-08T02:54:58.134Z,101426.78
2023-02-08T03:05:00.122Z,101433.16
2023-02-08T03:15:23.213Z,101436.91
2023-02-08T03:25:29.498Z,101437.91
2023-02-08T03:35:40.577Z,101435.28
2023-02-08T03:45:51.399Z,101427.44
2023-02-08T03:55:56.719Z,101423.97
2023-02-08T04:05:58.120Z,101424.72
2023-02-08T04:15:59.548Z,101423.84
2023-02-08T04:26:01.036Z,101422.72
2023-02-08T04:36:02.416Z,101429.84
2023-02-08T04:46:03.808Z,101434.50
2023-02-08T04:56:05.402Z,101426.19
2023-02-08T05:06:06.970Z,101428.81
2023-02-08T05:16:08.496Z,101428.03
2023-02-08T05:26:11.198Z,101429.53
2023-02-08T05:36:13.738Z,101431.50
2023-02-08T05:46:15.342Z,101430.44
2023-02-08T05:56:16.798Z,101429.16
2023-02-08T06:06:18.210Z,101428.84
2023-02-08T06:16:20.177Z,101423.22
2023-02-08T06:26:21.770Z,101436.06
2023-02-08T06:36:23.168Z,101438.97
2023-02-08T06:46:24.605Z,101436.13
2023-02-08T06:56:26.115Z,101423.16
2023-02-08T07:06:27.702Z,101417.69
2023-02-08T07:16:29.297Z,101403.16
2023-02-08T07:26:30.977Z,101410.81
2023-02-08T07:36:32.555Z,101399.41
2023-02-08T07:46:33.980Z,101404.34
2023-02-08T07:56:35.505Z,101401.13
2023-02-08T08:06:37.036Z,101394.19
2023-02-08T08:16:38.418Z,101389.66
2023-02-08T08:26:39.954Z,101395.50
2023-02-08T08:36:41.347Z,101383.25
2023-02-08T08:46:43.998Z,101392.06
2023-02-08T08:56:45.571Z,101385.41
2023-02-08T09:06:47.121Z,101382.16
2023-02-08T09:16:49.059Z,101383.72
2023-02-08T09:26:50.599Z,101397.94
2023-02-08T09:36:52.147Z,101397.88
2023-02-08T09:47:18.299Z,101396.25
2023-02-08T09:57:22.418Z,101393.50
2023-02-08T10:07:25.433Z,101394.97
2023-02-08T10:17:48.494Z,101387.63
2023-02-08T10:28:11.866Z,101384.63
2023-02-08T10:38:19.029Z,101369.03
2023-02-08T10:48:50.781Z,101379.72
2023-02-08T10:58:52.198Z,101371.84
2023-02-08T11:08:56.847Z,101365.97
2023-02-08T11:18:59.125Z,101361.91
2023-02-08T11:29:20.600Z,101362.97
2023-02-08T11:39:24.340Z,101338.81
2023-02-08T11:49:35.498Z,101322.56
2023-02-08T11:59:36.891Z,101317.81
2023-02-08T12:10:09.958Z,101300.97
2023-02-08T12:20:31.337Z,101288.44
2023-02-08T12:30:33.778Z,101282.63
2023-02-08T12:40:50.318Z,101270.19
2023-02-08T12:51:16.926Z,101258.75
2023-02-08T13:01:26.357Z,101256.91
2023-02-08T13:11:34.918Z,101252.81
2023-02-08T13:21:41.632Z,101242.13
2023-02-08T13:31:51.868Z,101217.97
2023-02-08T13:41:54.656Z,101200.34
2023-02-08T13:51:56.082Z,101196.84
2023-02-08T14:02:12.810Z,101186.13
2023-02-08T14:12:27.823Z,101176.44
2023-02-08T14:22:35.277Z,101170.25
2023-02-08T14:32:40.082Z,101153.88
2023-02-08T14:42:54.607Z,101141.34
2023-02-08T14:53:12.267Z,101141.06
2023-02-08T15:03:14.746Z,101128.53
2023-02-08T15:13:22.310Z,101114.72
2023-02-08T15:23:24.312Z,101117.13
2023-02-08T15:33:28.912Z,101100.06
2023-02-08T15:43:30.510Z,101086.38
2023-02-08T15:53:31.947Z,101087.09
2023-02-08T16:03:34.668Z,101083.00
2023-02-08T16:13:37.083Z,101066.94
2023-02-08T16:23:38.631Z,101055.09
2023-02-08T16:33:40.161Z,101048.78
2023-02-08T16:43:43.768Z,101051.31
2023-02-08T16:53:47.612Z,101061.22
2023-02-08T17:03:50.110Z,101051.03
2023-02-08T17:13:52.274Z,101044.56
2023-02-08T17:23:53.819Z,101026.66
2023-02-08T17:33:58.122Z,101026.53
2023-02-08T17:43:59.576Z,101020.06
2023-02-08T17:54:04.786Z,101024.41
2023-02-08T18:04:06.522Z,101010.44
2023-02-08T18:14:08.435Z,101016.78
2023-02-08T18:24:10.116Z,100993.22
2023-02-08T18:34:11.680Z,100989.56
2023-02-08T18:44:13.062Z,101000.81
2023-02-08T18:54:15.802Z,101011.22
2023-02-08T19:04:17.167Z,100995.56
2023-02-08T19:14:18.547Z,100985.59
2023-02-08T19:24:19.940Z,100975.44
2023-02-08T19:34:21.328Z,100974.31
2023-02-08T19:44:23.063Z,100958.53
2023-02-08T19:54:24.517Z,100975.72
2023-02-08T20:04:26.314Z,100962.16
2023-02-08T20:14:30.316Z,100955.13
2023-02-08T20:24:31.908Z,100961.16
2023-02-08T20:34:33.457Z,100952.47
2023-02-08T20:44:35.214Z,100962.22
2023-02-08T20:54:37.359Z,100953.22
2023-02-08T21:04:38.741Z,100963.38
2023-02-08T21:14:40.151Z,100959.44
2023-02-08T21:24:41.546Z,100958.44
2023-02-08T21:34:43.085Z,100959.13
2023-02-08T21:44:44.638Z,100950.53
2023-02-08T21:54:46.269Z,100960.81
2023-02-08T22:04:47.647Z,100949.66
2023-02-08T22:14:49.356Z,100946.81
2023-02-08T22:24:50.769Z,100937.25
2023-02-08T22:34:52.369Z,100938.53
2023-02-08T22:44:54.397Z,100945.75
2023-02-08T22:54:56.054Z,100940.56
2023-02-08T23:04:57.593Z,100946.03
2023-02-08T23:14:59.048Z,100937.28
2023-02-08T23:25:00.638Z,100933.06
2023-02-08T23:35:02.013Z,100931.78
2023-02-08T23:45:03.805Z,100926.00
2023-02-08T23:55:06.188Z,100919.94
